sensor_id;sensor_type;location;lat;lon;timestamp;P1;durP1;ratioP1;P2;durP2;ratioP2
2966;SDS011;1493;51.496;7.210;2022-09-09T00:00:17;2.57;;;1.50;;
2966;SDS011;1493;51.496;7.210;2022-09-09T00:02:46;3.23;;;1.63;;
2966;SDS011;1493;51.496;7.210;2022-09-09T00:05:22;3.60;;;1.50;;
2966;SDS011;1493;51.496;7.210;2022-09-09T00:07:55;2.70;;;1.20;;
2966;SDS011;1493;51.496;7.210;2022-09-09T00:10:29;6.70;;;1.33;;
2966;SDS011;1493;51.496;7.210;2022-09-09T00:13:01;3.10;;;1.40;;
2966;SDS011;1493;51.496;7.210;2022-09-09T00:15:36;1.93;;;1.20;;
2966;SDS011;1493;51.496;7.210;2022-09-09T00:18:11;2.37;;;1.20;;
2966;SDS011;1493;51.496;7.210;2022-09-09T00:20:45;2.47;;;1.33;;
2966;SDS011;1493;51.496;7.210;2022-09-09T00:23:19;3.27;;;1.30;;
2966;SDS011;1493;51.496;7.210;2022-09-09T00:25:53;3.10;;;1.00;;
2966;SDS011;1493;51.496;7.210;2022-09-09T00:28:26;3.17;;;1.10;;
2966;SDS011;1493;51.496;7.210;2022-09-09T00:30:57;2.20;;;1.40;;
2966;SDS011;1493;51.496;7.210;2022-09-09T00:33:27;2.23;;;1.00;;
2966;SDS011;1493;51.496;7.210;2022-09-09T00:35:57;4.17;;;1.00;;
2966;SDS011;1493;51.496;7.210;2022-09-09T00:38:27;3.40;;;1.20;;
2966;SDS011;1493;51.496;7.210;2022-09-09T00:41:01;2.13;;;1.10;;
2966;SDS011;1493;51.496;7.210;2022-09-09T00:43:35;3.00;;;1.10;;
2966;SDS011;1493;51.496;7.210;2022-09-09T00:49:00;3.60;;;1.10;;
2966;SDS011;1493;51.496;7.210;2022-09-09T00:51:38;4.03;;;0.80;;
2966;SDS011;1493;51.496;7.210;2022-09-09T00:57:19;2.97;;;1.10;;
2966;SDS011;1493;51.496;7.210;2022-09-09T00:59:55;3.13;;;1.00;;
2966;SDS011;1493;51.496;7.210;2022-09-09T01:02:27;2.23;;;0.80;;
2966;SDS011;1493;51.496;7.210;2022-09-09T01:04:58;2.87;;;0.90;;
2966;SDS011;1493;51.496;7.210;2022-09-09T01:07:31;2.70;;;1.03;;
2966;SDS011;1493;51.496;7.210;2022-09-09T01:09:59;2.77;;;0.90;;
2966;SDS011;1493;51.496;7.210;2022-09-09T01:12:32;5.30;;;1.00;;
2966;SDS011;1493;51.496;7.210;2022-09-09T01:15:08;3.10;;;1.63;;
2966;SDS011;1493;51.496;7.210;2022-09-09T01:17:40;3.10;;;1.57;;
2966;SDS011;1493;51.496;7.210;2022-09-09T01:20:15;2.00;;;1.00;;
2966;SDS011;1493;51.496;7.210;2022-09-09T01:22:50;2.00;;;1.17;;
2966;SDS011;1493;51.496;7.210;2022-09-09T01:25:29;1.73;;;0.83;;
2966;SDS011;1493;51.496;7.210;2022-09-09T01:28:19;1.80;;;0.90;;
2966;SDS011;1493;51.496;7.210;2022-09-09T01:30:48;2.47;;;1.30;;
2966;SDS011;1493;51.496;7.210;2022-09-09T01:33:16;3.60;;;1.13;;
2966;SDS011;1493;51.496;7.210;2022-09-09T01:35:45;2.33;;;1.20;;
2966;SDS011;1493;51.496;7.210;2022-09-09T01:38:16;2.43;;;1.10;;
2966;SDS011;1493;51.496;7.210;2022-09-09T01:40:44;2.77;;;1.20;;
2966;SDS011;1493;51.496;7.210;2022-09-09T01:43:11;2.33;;;1.10;;
2966;SDS011;1493;51.496;7.210;2022-09-09T01:45:39;2.27;;;1.30;;
2966;SDS011;1493;51.496;7.210;2022-09-09T01:48:08;3.07;;;1.20;;
2966;SDS011;1493;51.496;7.210;2022-09-09T01:50:35;5.57;;;1.83;;
2966;SDS011;1493;51.496;7.210;2022-09-09T01:53:02;3.97;;;1.53;;
2966;SDS011;1493;51.496;7.210;2022-09-09T01:55:30;4.07;;;1.80;;
2966;SDS011;1493;51.496;7.210;2022-09-09T01:58:03;5.10;;;1.90;;
2966;SDS011;1493;51.496;7.210;2022-09-09T02:00:45;3.30;;;1.50;;
2966;SDS011;1493;51.496;7.210;2022-09-09T02:03:23;3.73;;;1.87;;
2966;SDS011;1493;51.496;7.210;2022-09-09T02:05:55;2.43;;;1.73;;
2966;SDS011;1493;51.496;7.210;2022-09-09T02:08:29;2.60;;;1.60;;
2966;SDS011;1493;51.496;7.210;2022-09-09T02:11:01;3.03;;;1.90;;
2966;SDS011;1493;51.496;7.210;2022-09-09T02:13:34;2.53;;;1.70;;
2966;SDS011;1493;51.496;7.210;2022-09-09T02:16:05;5.80;;;1.53;;
2966;SDS011;1493;51.496;7.210;2022-09-09T02:18:35;4.77;;;1.80;;
2966;SDS011;1493;51.496;7.210;2022-09-09T02:21:06;4.40;;;2.00;;
2966;SDS011;1493;51.496;7.210;2022-09-09T02:23:35;2.90;;;1.97;;
2966;SDS011;1493;51.496;7.210;2022-09-09T02:26:04;2.20;;;1.53;;
2966;SDS011;1493;51.496;7.210;2022-09-09T02:28:33;5.30;;;2.00;;
2966;SDS011;1493;51.496;7.210;2022-09-09T02:31:04;2.90;;;1.63;;
2966;SDS011;1493;51.496;7.210;2022-09-09T02:33:33;2.97;;;1.60;;
2966;SDS011;1493;51.496;7.210;2022-09-09T02:36:04;2.87;;;1.83;;
2966;SDS011;1493;51.496;7.210;2022-09-09T02:38:35;3.70;;;1.50;;
2966;SDS011;1493;51.496;7.210;2022-09-09T02:41:05;2.90;;;1.60;;
2966;SDS011;1493;51.496;7.210;2022-09-09T02:43:32;3.40;;;1.67;;
2966;SDS011;1493;51.496;7.210;2022-09-09T02:46:02;4.03;;;2.00;;
2966;SDS011;1493;51.496;7.210;2022-09-09T02:48:36;4.73;;;2.20;;
2966;SDS011;1493;51.496;7.210;2022-09-09T02:51:13;2.73;;;1.73;;
2966;SDS011;1493;51.496;7.210;2022-09-09T02:53:46;5.40;;;2.03;;
2966;SDS011;1493;51.496;7.210;2022-09-09T02:56:20;3.50;;;2.20;;
2966;SDS011;1493;51.496;7.210;2022-09-09T02:58:50;4.43;;;2.20;;
2966;SDS011;1493;51.496;7.210;2022-09-09T03:01:19;3.63;;;2.10;;
2966;SDS011;1493;51.496;7.210;2022-09-09T03:03:46;5.30;;;2.33;;
2966;SDS011;1493;51.496;7.210;2022-09-09T03:06:13;2.97;;;1.77;;
2966;SDS011;1493;51.496;7.210;2022-09-09T03:08:40;2.70;;;1.70;;
2966;SDS011;1493;51.496;7.210;2022-09-09T03:11:07;2.57;;;1.70;;
2966;SDS011;1493;51.496;7.210;2022-09-09T03:13:34;2.87;;;1.90;;
2966;SDS011;1493;51.496;7.210;2022-09-09T03:16:02;3.40;;;2.07;;
2966;SDS011;1493;51.496;7.210;2022-09-09T03:18:31;3.50;;;1.73;;
2966;SDS011;1493;51.496;7.210;2022-09-09T03:20:59;5.30;;;2.00;;
2966;SDS011;1493;51.496;7.210;2022-09-09T03:23:26;3.00;;;1.70;;
2966;SDS011;1493;51.496;7.210;2022-09-09T03:25:53;3.50;;;1.57;;
2966;SDS011;1493;51.496;7.210;2022-09-09T03:28:22;3.60;;;2.10;;
2966;SDS011;1493;51.496;7.210;2022-09-09T03:30:57;7.20;;;1.70;;
2966;SDS011;1493;51.496;7.210;2022-09-09T03:33:24;3.30;;;1.37;;
2966;SDS011;1493;51.496;7.210;2022-09-09T03:35:53;4.37;;;1.50;;
2966;SDS011;1493;51.496;7.210;2022-09-09T03:38:21;4.40;;;1.73;;
2966;SDS011;1493;51.496;7.210;2022-09-09T03:40:49;4.00;;;1.50;;
2966;SDS011;1493;51.496;7.210;2022-09-09T03:43:20;6.00;;;1.70;;
2966;SDS011;1493;51.496;7.210;2022-09-09T03:45:47;4.40;;;1.50;;
2966;SDS011;1493;51.496;7.210;2022-09-09T03:48:14;3.23;;;1.50;;
2966;SDS011;1493;51.496;7.210;2022-09-09T03:50:43;2.93;;;1.70;;
2966;SDS011;1493;51.496;7.210;2022-09-09T03:53:13;7.57;;;1.60;;
2966;SDS011;1493;51.496;7.210;2022-09-09T03:55:43;3.80;;;1.50;;
2966;SDS011;1493;51.496;7.210;2022-09-09T03:58:10;2.20;;;1.30;;
2966;SDS011;1493;51.496;7.210;2022-09-09T04:00:38;6.13;;;1.80;;
2966;SDS011;1493;51.496;7.210;2022-09-09T04:03:07;7.80;;;1.70;;
2966;SDS011;1493;51.496;7.210;2022-09-09T04:05:34;3.50;;;1.80;;
2966;SDS011;1493;51.496;7.210;2022-09-09T04:08:04;2.83;;;1.60;;
2966;SDS011;1493;51.496;7.210;2022-09-09T04:10:33;3.70;;;1.63;;
2966;SDS011;1493;51.496;7.210;2022-09-09T04:13:02;8.80;;;1.70;;
2966;SDS011;1493;51.496;7.210;2022-09-09T04:15:29;5.87;;;1.73;;
2966;SDS011;1493;51.496;7.210;2022-09-09T04:17:56;4.67;;;1.77;;
2966;SDS011;1493;51.496;7.210;2022-09-09T04:20:23;3.60;;;1.90;;
2966;SDS011;1493;51.496;7.210;2022-09-09T04:22:50;4.20;;;1.83;;
2966;SDS011;1493;51.496;7.210;2022-09-09T04:25:17;2.33;;;1.73;;
2966;SDS011;1493;51.496;7.210;2022-09-09T04:27:45;2.27;;;0.93;;
2966;SDS011;1493;51.496;7.210;2022-09-09T04:30:12;1.50;;;0.80;;
2966;SDS011;1493;51.496;7.210;2022-09-09T04:32:39;2.43;;;1.40;;
2966;SDS011;1493;51.496;7.210;2022-09-09T04:35:06;4.03;;;2.00;;
2966;SDS011;1493;51.496;7.210;2022-09-09T04:37:33;2.57;;;1.47;;
2966;SDS011;1493;51.496;7.210;2022-09-09T04:40:00;3.43;;;1.33;;
2966;SDS011;1493;51.496;7.210;2022-09-09T04:42:28;3.57;;;1.37;;
2966;SDS011;1493;51.496;7.210;2022-09-09T04:44:56;3.70;;;1.73;;
2966;SDS011;1493;51.496;7.210;2022-09-09T04:47:23;6.83;;;2.07;;
2966;SDS011;1493;51.496;7.210;2022-09-09T04:49:49;3.70;;;1.40;;
2966;SDS011;1493;51.496;7.210;2022-09-09T04:52:16;3.93;;;1.50;;
2966;SDS011;1493;51.496;7.210;2022-09-09T04:54:43;3.50;;;1.70;;
2966;SDS011;1493;51.496;7.210;2022-09-09T04:57:11;3.47;;;1.23;;
2966;SDS011;1493;51.496;7.210;2022-09-09T04:59:38;6.13;;;1.80;;
2966;SDS011;1493;51.496;7.210;2022-09-09T05:02:06;3.30;;;1.30;;
2966;SDS011;1493;51.496;7.210;2022-09-09T05:04:33;4.07;;;1.50;;
2966;SDS011;1493;51.496;7.210;2022-09-09T05:07:00;3.40;;;1.63;;
2966;SDS011;1493;51.496;7.210;2022-09-09T05:09:27;4.43;;;1.80;;
2966;SDS011;1493;51.496;7.210;2022-09-09T05:11:54;3.50;;;1.60;;
2966;SDS011;1493;51.496;7.210;2022-09-09T05:14:21;4.03;;;1.50;;
2966;SDS011;1493;51.496;7.210;2022-09-09T05:16:47;3.73;;;1.63;;
2966;SDS011;1493;51.496;7.210;2022-09-09T05:22:17;3.53;;;1.73;;
2966;SDS011;1493;51.496;7.210;2022-09-09T05:24:45;4.33;;;1.77;;
2966;SDS011;1493;51.496;7.210;2022-09-09T05:27:11;2.90;;;1.70;;
2966;SDS011;1493;51.496;7.210;2022-09-09T05:29:38;3.00;;;1.53;;
2966;SDS011;1493;51.496;7.210;2022-09-09T05:32:06;3.50;;;1.87;;
2966;SDS011;1493;51.496;7.210;2022-09-09T05:34:33;2.70;;;1.50;;
2966;SDS011;1493;51.496;7.210;2022-09-09T05:37:01;3.20;;;1.70;;
2966;SDS011;1493;51.496;7.210;2022-09-09T05:39:29;5.03;;;2.00;;
2966;SDS011;1493;51.496;7.210;2022-09-09T05:42:05;5.37;;;2.13;;
2966;SDS011;1493;51.496;7.210;2022-09-09T05:44:33;4.03;;;2.30;;
2966;SDS011;1493;51.496;7.210;2022-09-09T05:47:00;5.70;;;2.37;;
2966;SDS011;1493;51.496;7.210;2022-09-09T05:49:27;9.80;;;2.50;;
2966;SDS011;1493;51.496;7.210;2022-09-09T05:51:54;5.00;;;1.57;;
2966;SDS011;1493;51.496;7.210;2022-09-09T05:54:22;5.13;;;1.80;;
2966;SDS011;1493;51.496;7.210;2022-09-09T05:56:49;5.10;;;1.97;;
2966;SDS011;1493;51.496;7.210;2022-09-09T05:59:17;4.73;;;2.23;;
2966;SDS011;1493;51.496;7.210;2022-09-09T06:01:44;5.23;;;2.33;;
2966;SDS011;1493;51.496;7.210;2022-09-09T06:04:14;6.63;;;2.00;;
2966;SDS011;1493;51.496;7.210;2022-09-09T06:06:41;5.10;;;1.67;;
2966;SDS011;1493;51.496;7.210;2022-09-09T06:09:08;4.20;;;2.00;;
2966;SDS011;1493;51.496;7.210;2022-09-09T06:11:38;4.90;;;2.30;;
2966;SDS011;1493;51.496;7.210;2022-09-09T06:14:08;5.93;;;1.93;;
2966;SDS011;1493;51.496;7.210;2022-09-09T06:16:37;8.50;;;2.40;;
2966;SDS011;1493;51.496;7.210;2022-09-09T06:19:04;6.20;;;2.30;;
2966;SDS011;1493;51.496;7.210;2022-09-09T06:21:32;5.50;;;2.10;;
2966;SDS011;1493;51.496;7.210;2022-09-09T06:24:02;6.73;;;2.40;;
2966;SDS011;1493;51.496;7.210;2022-09-09T06:26:33;3.03;;;1.97;;
2966;SDS011;1493;51.496;7.210;2022-09-09T06:29:02;11.47;;;2.67;;
2966;SDS011;1493;51.496;7.210;2022-09-09T06:31:30;3.60;;;1.83;;
2966;SDS011;1493;51.496;7.210;2022-09-09T06:34:03;3.93;;;2.33;;
2966;SDS011;1493;51.496;7.210;2022-09-09T06:36:32;8.37;;;3.10;;
2966;SDS011;1493;51.496;7.210;2022-09-09T06:39:03;4.20;;;2.20;;
2966;SDS011;1493;51.496;7.210;2022-09-09T06:41:31;5.60;;;2.60;;
2966;SDS011;1493;51.496;7.210;2022-09-09T06:43:59;4.80;;;2.50;;
2966;SDS011;1493;51.496;7.210;2022-09-09T06:46:28;4.33;;;1.90;;
2966;SDS011;1493;51.496;7.210;2022-09-09T06:48:58;7.20;;;2.50;;
2966;SDS011;1493;51.496;7.210;2022-09-09T06:51:28;6.70;;;2.23;;
2966;SDS011;1493;51.496;7.210;2022-09-09T06:53:59;5.67;;;2.20;;
2966;SDS011;1493;51.496;7.210;2022-09-09T06:56:29;7.80;;;2.17;;
2966;SDS011;1493;51.496;7.210;2022-09-09T06:59:00;8.37;;;2.40;;
2966;SDS011;1493;51.496;7.210;2022-09-09T07:01:30;3.00;;;1.60;;
2966;SDS011;1493;51.496;7.210;2022-09-09T07:04:01;6.97;;;2.07;;
2966;SDS011;1493;51.496;7.210;2022-09-09T07:06:32;3.77;;;1.73;;
2966;SDS011;1493;51.496;7.210;2022-09-09T07:09:09;5.27;;;1.53;;
2966;SDS011;1493;51.496;7.210;2022-09-09T07:11:40;8.03;;;2.27;;
2966;SDS011;1493;51.496;7.210;2022-09-09T07:14:10;7.70;;;1.60;;
2966;SDS011;1493;51.496;7.210;2022-09-09T07:16:40;6.43;;;1.83;;
2966;SDS011;1493;51.496;7.210;2022-09-09T07:19:07;6.03;;;1.87;;
2966;SDS011;1493;51.496;7.210;2022-09-09T07:21:34;4.70;;;1.60;;
2966;SDS011;1493;51.496;7.210;2022-09-09T07:24:01;5.27;;;1.93;;
2966;SDS011;1493;51.496;7.210;2022-09-09T07:26:30;7.63;;;3.00;;
2966;SDS011;1493;51.496;7.210;2022-09-09T07:28:57;5.57;;;1.60;;
2966;SDS011;1493;51.496;7.210;2022-09-09T07:31:24;5.00;;;1.60;;
2966;SDS011;1493;51.496;7.210;2022-09-09T07:33:53;4.70;;;1.60;;
2966;SDS011;1493;51.496;7.210;2022-09-09T07:36:21;2.80;;;1.30;;
2966;SDS011;1493;51.496;7.210;2022-09-09T07:38:51;2.93;;;1.53;;
2966;SDS011;1493;51.496;7.210;2022-09-09T07:41:19;4.60;;;1.50;;
2966;SDS011;1493;51.496;7.210;2022-09-09T07:43:48;4.03;;;1.47;;
2966;SDS011;1493;51.496;7.210;2022-09-09T07:46:16;5.23;;;1.80;;
2966;SDS011;1493;51.496;7.210;2022-09-09T07:48:44;2.60;;;1.40;;
2966;SDS011;1493;51.496;7.210;2022-09-09T07:51:14;8.60;;;1.80;;
2966;SDS011;1493;51.496;7.210;2022-09-09T07:53:43;6.70;;;1.70;;
2966;SDS011;1493;51.496;7.210;2022-09-09T07:56:11;3.33;;;1.20;;
2966;SDS011;1493;51.496;7.210;2022-09-09T07:58:39;4.07;;;1.53;;
2966;SDS011;1493;51.496;7.210;2022-09-09T08:01:07;4.40;;;1.30;;
2966;SDS011;1493;51.496;7.210;2022-09-09T08:03:35;6.60;;;1.60;;
2966;SDS011;1493;51.496;7.210;2022-09-09T08:06:03;4.40;;;1.63;;
2966;SDS011;1493;51.496;7.210;2022-09-09T08:08:33;4.23;;;1.53;;
2966;SDS011;1493;51.496;7.210;2022-09-09T08:11:01;5.67;;;1.40;;
2966;SDS011;1493;51.496;7.210;2022-09-09T08:13:32;5.10;;;1.30;;
2966;SDS011;1493;51.496;7.210;2022-09-09T08:16:03;5.50;;;1.60;;
2966;SDS011;1493;51.496;7.210;2022-09-09T08:18:32;5.83;;;1.70;;
2966;SDS011;1493;51.496;7.210;2022-09-09T08:21:04;6.33;;;1.97;;
2966;SDS011;1493;51.496;7.210;2022-09-09T08:23:34;3.23;;;1.20;;
2966;SDS011;1493;51.496;7.210;2022-09-09T08:26:05;4.97;;;1.10;;
2966;SDS011;1493;51.496;7.210;2022-09-09T08:28:34;7.57;;;1.37;;
2966;SDS011;1493;51.496;7.210;2022-09-09T08:31:07;4.07;;;1.43;;
2966;SDS011;1493;51.496;7.210;2022-09-09T08:33:36;5.10;;;1.67;;
2966;SDS011;1493;51.496;7.210;2022-09-09T08:36:04;6.90;;;1.40;;
2966;SDS011;1493;51.496;7.210;2022-09-09T08:38:35;5.53;;;1.60;;
2966;SDS011;1493;51.496;7.210;2022-09-09T08:41:06;6.70;;;1.70;;
2966;SDS011;1493;51.496;7.210;2022-09-09T08:43:48;3.83;;;1.17;;
2966;SDS011;1493;51.496;7.210;2022-09-09T08:46:19;4.53;;;1.23;;
2966;SDS011;1493;51.496;7.210;2022-09-09T08:48:52;4.20;;;1.20;;
2966;SDS011;1493;51.496;7.210;2022-09-09T08:51:23;5.30;;;1.60;;
2966;SDS011;1493;51.496;7.210;2022-09-09T08:54:04;5.10;;;1.63;;
2966;SDS011;1493;51.496;7.210;2022-09-09T08:56:32;5.17;;;1.73;;
2966;SDS011;1493;51.496;7.210;2022-09-09T08:59:00;10.10;;;1.70;;
2966;SDS011;1493;51.496;7.210;2022-09-09T09:01:43;6.20;;;1.60;;
2966;SDS011;1493;51.496;7.210;2022-09-09T09:04:30;4.03;;;1.70;;
2966;SDS011;1493;51.496;7.210;2022-09-09T09:07:10;5.27;;;1.93;;
2966;SDS011;1493;51.496;7.210;2022-09-09T09:09:50;3.33;;;1.70;;
2966;SDS011;1493;51.496;7.210;2022-09-09T09:12:25;3.60;;;1.50;;
2966;SDS011;1493;51.496;7.210;2022-09-09T09:14:55;6.40;;;1.60;;
2966;SDS011;1493;51.496;7.210;2022-09-09T09:17:23;4.93;;;2.10;;
2966;SDS011;1493;51.496;7.210;2022-09-09T09:19:55;7.17;;;2.03;;
2966;SDS011;1493;51.496;7.210;2022-09-09T09:22:25;9.10;;;2.10;;
2966;SDS011;1493;51.496;7.210;2022-09-09T09:25:00;5.50;;;1.90;;
2966;SDS011;1493;51.496;7.210;2022-09-09T09:27:36;5.23;;;1.70;;
2966;SDS011;1493;51.496;7.210;2022-09-09T09:30:12;3.53;;;1.70;;
2966;SDS011;1493;51.496;7.210;2022-09-09T09:32:43;4.43;;;1.60;;
2966;SDS011;1493;51.496;7.210;2022-09-09T09:35:15;5.67;;;1.93;;
2966;SDS011;1493;51.496;7.210;2022-09-09T09:37:42;3.00;;;1.47;;
2966;SDS011;1493;51.496;7.210;2022-09-09T09:40:12;3.37;;;1.40;;
2966;SDS011;1493;51.496;7.210;2022-09-09T09:42:47;6.23;;;1.50;;
2966;SDS011;1493;51.496;7.210;2022-09-09T09:45:16;6.33;;;1.33;;
2966;SDS011;1493;51.496;7.210;2022-09-09T09:48:00;4.93;;;2.07;;
2966;SDS011;1493;51.496;7.210;2022-09-09T09:50:29;5.20;;;1.80;;
2966;SDS011;1493;51.496;7.210;2022-09-09T09:52:59;3.17;;;1.20;;
2966;SDS011;1493;51.496;7.210;2022-09-09T09:55:30;6.37;;;2.07;;
2966;SDS011;1493;51.496;7.210;2022-09-09T09:58:03;7.10;;;2.00;;
2966;SDS011;1493;51.496;7.210;2022-09-09T10:00:30;6.77;;;1.30;;
2966;SDS011;1493;51.496;7.210;2022-09-09T10:02:59;6.53;;;1.60;;
2966;SDS011;1493;51.496;7.210;2022-09-09T10:05:27;4.07;;;1.53;;
2966;SDS011;1493;51.496;7.210;2022-09-09T10:08:05;6.77;;;1.57;;
2966;SDS011;1493;51.496;7.210;2022-09-09T10:10:42;4.40;;;1.20;;
2966;SDS011;1493;51.496;7.210;2022-09-09T10:13:26;5.13;;;1.70;;
2966;SDS011;1493;51.496;7.210;2022-09-09T10:16:05;4.67;;;1.40;;
2966;SDS011;1493;51.496;7.210;2022-09-09T10:18:45;6.43;;;1.40;;
2966;SDS011;1493;51.496;7.210;2022-09-09T10:21:22;4.93;;;1.40;;
2966;SDS011;1493;51.496;7.210;2022-09-09T10:24:02;4.67;;;1.40;;
2966;SDS011;1493;51.496;7.210;2022-09-09T10:26:40;5.40;;;1.40;;
2966;SDS011;1493;51.496;7.210;2022-09-09T10:29:19;4.60;;;1.43;;
2966;SDS011;1493;51.496;7.210;2022-09-09T10:32:00;3.60;;;1.40;;
2966;SDS011;1493;51.496;7.210;2022-09-09T10:34:51;4.00;;;1.50;;
2966;SDS011;1493;51.496;7.210;2022-09-09T10:43:10;5.10;;;1.70;;
2966;SDS011;1493;51.496;7.210;2022-09-09T10:45:49;2.90;;;1.10;;
2966;SDS011;1493;51.496;7.210;2022-09-09T10:48:30;3.40;;;1.20;;
2966;SDS011;1493;51.496;7.210;2022-09-09T10:51:05;3.10;;;1.30;;
2966;SDS011;1493;51.496;7.210;2022-09-09T10:53:46;4.40;;;1.13;;
2966;SDS011;1493;51.496;7.210;2022-09-09T10:56:19;5.20;;;1.70;;
2966;SDS011;1493;51.496;7.210;2022-09-09T10:58:52;4.13;;;1.33;;
2966;SDS011;1493;51.496;7.210;2022-09-09T11:01:25;4.43;;;1.50;;
2966;SDS011;1493;51.496;7.210;2022-09-09T11:03:56;6.13;;;2.00;;
2966;SDS011;1493;51.496;7.210;2022-09-09T11:06:30;3.73;;;1.60;;
2966;SDS011;1493;51.496;7.210;2022-09-09T11:09:03;6.40;;;1.33;;
2966;SDS011;1493;51.496;7.210;2022-09-09T11:11:33;2.70;;;1.10;;
2966;SDS011;1493;51.496;7.210;2022-09-09T11:14:08;8.47;;;1.73;;
2966;SDS011;1493;51.496;7.210;2022-09-09T11:16:41;4.80;;;1.60;;
2966;SDS011;1493;51.496;7.210;2022-09-09T11:19:16;6.57;;;2.20;;
2966;SDS011;1493;51.496;7.210;2022-09-09T11:21:48;5.73;;;1.77;;
2966;SDS011;1493;51.496;7.210;2022-09-09T11:24:18;5.17;;;2.00;;
2966;SDS011;1493;51.496;7.210;2022-09-09T11:26:50;2.80;;;1.10;;
2966;SDS011;1493;51.496;7.210;2022-09-09T11:29:26;6.70;;;2.20;;
2966;SDS011;1493;51.496;7.210;2022-09-09T11:32:21;5.87;;;1.10;;
2966;SDS011;1493;51.496;7.210;2022-09-09T11:35:02;2.27;;;0.90;;
2966;SDS011;1493;51.496;7.210;2022-09-09T11:37:59;5.20;;;1.50;;
2966;SDS011;1493;51.496;7.210;2022-09-09T11:40:43;3.60;;;1.27;;
2966;SDS011;1493;51.496;7.210;2022-09-09T11:43:12;3.13;;;0.90;;
2966;SDS011;1493;51.496;7.210;2022-09-09T11:45:49;2.70;;;1.10;;
2966;SDS011;1493;51.496;7.210;2022-09-09T11:48:26;3.80;;;1.53;;
2966;SDS011;1493;51.496;7.210;2022-09-09T11:51:00;2.73;;;0.97;;
2966;SDS011;1493;51.496;7.210;2022-09-09T11:53:30;5.07;;;0.97;;
2966;SDS011;1493;51.496;7.210;2022-09-09T11:56:05;2.50;;;1.00;;
2966;SDS011;1493;51.496;7.210;2022-09-09T11:58:38;2.60;;;0.90;;
2966;SDS011;1493;51.496;7.210;2022-09-09T12:01:15;4.57;;;1.20;;
2966;SDS011;1493;51.496;7.210;2022-09-09T12:03:55;4.00;;;1.13;;
2966;SDS011;1493;51.496;7.210;2022-09-09T12:06:44;4.10;;;1.20;;
2966;SDS011;1493;51.496;7.210;2022-09-09T12:09:22;3.50;;;0.90;;
2966;SDS011;1493;51.496;7.210;2022-09-09T12:11:53;3.30;;;1.03;;
2966;SDS011;1493;51.496;7.210;2022-09-09T12:14:35;6.10;;;1.40;;
2966;SDS011;1493;51.496;7.210;2022-09-09T12:17:17;6.07;;;1.13;;
2966;SDS011;1493;51.496;7.210;2022-09-09T12:19:46;4.40;;;1.00;;
2966;SDS011;1493;51.496;7.210;2022-09-09T12:22:16;2.63;;;1.03;;
2966;SDS011;1493;51.496;7.210;2022-09-09T12:24:52;4.10;;;1.20;;
2966;SDS011;1493;51.496;7.210;2022-09-09T12:27:26;3.53;;;1.10;;
2966;SDS011;1493;51.496;7.210;2022-09-09T12:30:01;2.80;;;1.00;;
2966;SDS011;1493;51.496;7.210;2022-09-09T12:32:32;3.73;;;1.10;;
2966;SDS011;1493;51.496;7.210;2022-09-09T12:35:00;3.60;;;1.10;;
2966;SDS011;1493;51.496;7.210;2022-09-09T12:37:31;6.77;;;1.20;;
2966;SDS011;1493;51.496;7.210;2022-09-09T12:40:01;2.43;;;0.83;;
2966;SDS011;1493;51.496;7.210;2022-09-09T12:42:30;2.80;;;1.07;;
2966;SDS011;1493;51.496;7.210;2022-09-09T12:44:59;6.20;;;1.17;;
2966;SDS011;1493;51.496;7.210;2022-09-09T12:47:35;2.73;;;1.33;;
2966;SDS011;1493;51.496;7.210;2022-09-09T12:50:15;3.57;;;1.10;;
2966;SDS011;1493;51.496;7.210;2022-09-09T12:52:43;3.57;;;0.97;;
2966;SDS011;1493;51.496;7.210;2022-09-09T12:55:15;4.30;;;1.00;;
2966;SDS011;1493;51.496;7.210;2022-09-09T12:57:44;4.13;;;1.10;;
2966;SDS011;1493;51.496;7.210;2022-09-09T13:00:13;4.10;;;1.20;;
2966;SDS011;1493;51.496;7.210;2022-09-09T13:02:47;6.20;;;1.03;;
2966;SDS011;1493;51.496;7.210;2022-09-09T13:05:17;4.20;;;0.97;;
2966;SDS011;1493;51.496;7.210;2022-09-09T13:07:46;3.80;;;0.93;;
2966;SDS011;1493;51.496;7.210;2022-09-09T13:10:13;3.40;;;0.90;;
2966;SDS011;1493;51.496;7.210;2022-09-09T13:12:43;2.50;;;1.30;;
2966;SDS011;1493;51.496;7.210;2022-09-09T13:15:12;6.87;;;1.10;;
2966;SDS011;1493;51.496;7.210;2022-09-09T13:17:50;4.30;;;0.90;;
2966;SDS011;1493;51.496;7.210;2022-09-09T13:20:21;3.40;;;0.90;;
2966;SDS011;1493;51.496;7.210;2022-09-09T13:22:49;4.27;;;1.00;;
2966;SDS011;1493;51.496;7.210;2022-09-09T13:25:22;2.20;;;1.10;;
2966;SDS011;1493;51.496;7.210;2022-09-09T13:27:56;2.57;;;0.90;;
2966;SDS011;1493;51.496;7.210;2022-09-09T13:30:26;4.37;;;0.90;;
2966;SDS011;1493;51.496;7.210;2022-09-09T13:33:01;5.40;;;1.33;;
2966;SDS011;1493;51.496;7.210;2022-09-09T13:35:30;2.90;;;1.07;;
2966;SDS011;1493;51.496;7.210;2022-09-09T13:38:06;7.80;;;1.37;;
2966;SDS011;1493;51.496;7.210;2022-09-09T13:40:34;4.53;;;1.00;;
2966;SDS011;1493;51.496;7.210;2022-09-09T13:43:35;3.80;;;1.33;;
2966;SDS011;1493;51.496;7.210;2022-09-09T13:46:25;4.23;;;1.67;;
2966;SDS011;1493;51.496;7.210;2022-09-09T13:48:57;7.50;;;1.40;;
2966;SDS011;1493;51.496;7.210;2022-09-09T13:51:29;3.27;;;1.30;;
2966;SDS011;1493;51.496;7.210;2022-09-09T13:54:00;6.37;;;1.77;;
2966;SDS011;1493;51.496;7.210;2022-09-09T13:56:27;5.83;;;1.77;;
2966;SDS011;1493;51.496;7.210;2022-09-09T13:58:54;6.83;;;2.07;;
2966;SDS011;1493;51.496;7.210;2022-09-09T14:01:23;7.93;;;2.40;;
2966;SDS011;1493;51.496;7.210;2022-09-09T14:03:50;5.17;;;1.80;;
2966;SDS011;1493;51.496;7.210;2022-09-09T14:06:19;4.23;;;2.17;;
2966;SDS011;1493;51.496;7.210;2022-09-09T14:08:52;5.87;;;1.80;;
2966;SDS011;1493;51.496;7.210;2022-09-09T14:11:24;6.07;;;2.03;;
2966;SDS011;1493;51.496;7.210;2022-09-09T14:13:51;5.13;;;1.97;;
2966;SDS011;1493;51.496;7.210;2022-09-09T14:16:18;6.23;;;2.03;;
2966;SDS011;1493;51.496;7.210;2022-09-09T14:18:45;5.63;;;2.57;;
2966;SDS011;1493;51.496;7.210;2022-09-09T14:21:12;4.37;;;2.17;;
2966;SDS011;1493;51.496;7.210;2022-09-09T14:23:41;10.57;;;2.20;;
2966;SDS011;1493;51.496;7.210;2022-09-09T14:26:08;4.13;;;2.20;;
2966;SDS011;1493;51.496;7.210;2022-09-09T14:28:36;5.63;;;1.93;;
2966;SDS011;1493;51.496;7.210;2022-09-09T14:31:05;3.37;;;1.50;;
2966;SDS011;1493;51.496;7.210;2022-09-09T14:33:32;5.87;;;1.90;;
2966;SDS011;1493;51.496;7.210;2022-09-09T14:36:00;3.30;;;2.00;;
2966;SDS011;1493;51.496;7.210;2022-09-09T14:38:29;6.20;;;2.30;;
2966;SDS011;1493;51.496;7.210;2022-09-09T14:43:42;4.77;;;1.90;;
2966;SDS011;1493;51.496;7.210;2022-09-09T14:46:10;5.07;;;1.80;;
2966;SDS011;1493;51.496;7.210;2022-09-09T14:48:38;4.50;;;1.90;;
2966;SDS011;1493;51.496;7.210;2022-09-09T14:51:06;3.97;;;1.70;;
2966;SDS011;1493;51.496;7.210;2022-09-09T14:53:34;4.70;;;1.77;;
2966;SDS011;1493;51.496;7.210;2022-09-09T14:56:05;6.57;;;2.27;;
2966;SDS011;1493;51.496;7.210;2022-09-09T14:58:33;5.13;;;1.60;;
2966;SDS011;1493;51.496;7.210;2022-09-09T15:01:07;4.53;;;1.50;;
2966;SDS011;1493;51.496;7.210;2022-09-09T15:03:59;6.00;;;2.33;;
2966;SDS011;1493;51.496;7.210;2022-09-09T15:06:29;3.40;;;1.70;;
2966;SDS011;1493;51.496;7.210;2022-09-09T15:08:58;3.70;;;1.50;;
2966;SDS011;1493;51.496;7.210;2022-09-09T15:11:26;5.47;;;1.70;;
2966;SDS011;1493;51.496;7.210;2022-09-09T15:13:55;2.30;;;1.30;;
2966;SDS011;1493;51.496;7.210;2022-09-09T15:16:25;4.17;;;2.20;;
2966;SDS011;1493;51.496;7.210;2022-09-09T15:18:53;4.60;;;1.87;;
2966;SDS011;1493;51.496;7.210;2022-09-09T15:21:22;8.10;;;3.10;;
2966;SDS011;1493;51.496;7.210;2022-09-09T15:23:53;3.90;;;3.20;;
2966;SDS011;1493;51.496;7.210;2022-09-09T15:26:21;8.43;;;2.93;;
2966;SDS011;1493;51.496;7.210;2022-09-09T15:28:51;5.83;;;1.87;;
2966;SDS011;1493;51.496;7.210;2022-09-09T15:31:18;3.20;;;1.10;;
2966;SDS011;1493;51.496;7.210;2022-09-09T15:33:53;3.00;;;1.30;;
2966;SDS011;1493;51.496;7.210;2022-09-09T15:36:27;5.47;;;1.50;;
2966;SDS011;1493;51.496;7.210;2022-09-09T15:38:57;2.10;;;1.00;;
2966;SDS011;1493;51.496;7.210;2022-09-09T15:41:25;2.93;;;1.67;;
2966;SDS011;1493;51.496;7.210;2022-09-09T15:43:55;3.93;;;1.00;;
2966;SDS011;1493;51.496;7.210;2022-09-09T15:46:37;3.03;;;0.90;;
2966;SDS011;1493;51.496;7.210;2022-09-09T15:49:07;2.27;;;0.90;;
2966;SDS011;1493;51.496;7.210;2022-09-09T15:51:39;2.80;;;1.20;;
2966;SDS011;1493;51.496;7.210;2022-09-09T15:54:11;2.37;;;1.10;;
2966;SDS011;1493;51.496;7.210;2022-09-09T15:56:43;3.20;;;1.80;;